createdAt,value
2023-02-09T00:02:17.944Z,30.30
2023-02-09T00:04:44.759Z,31.13
2023-02-09T00:07:11.418Z,28.53
2023-02-09T00:09:38.141Z,29.83
2023-02-09T00:12:23.810Z,25.93
2023-02-09T00:14:50.555Z,31.27
2023-02-09T00:17:17.265Z,33.73
2023-02-09T00:19:43.948Z,31.57
2023-02-09T00:22:10.655Z,33.57
2023-02-09T00:24:37.352Z,30.57
2023-02-09T00:27:04.102Z,31.57
2023-02-09T00:29:30.853Z,33.63
2023-02-09T00:31:57.636Z,31.73
2023-02-09T00:34:24.394Z,28.20
2023-02-09T00:36:51.170Z,31.23
2023-02-09T00:39:17.839Z,27.60
2023-02-09T00:42:03.156Z,31.00
2023-02-09T00:44:29.832Z,31.73
2023-02-09T00:46:56.869Z,28.90
2023-02-09T00:49:24.020Z,28.27
2023-02-09T00:51:50.782Z,33.70
2023-02-09T00:54:17.607Z,30.27
2023-02-09T00:56:44.850Z,32.57
2023-02-09T00:59:11.667Z,29.83
2023-02-09T01:01:38.499Z,30.47
2023-02-09T01:04:05.423Z,32.53
2023-02-09T01:06:32.104Z,29.47
2023-02-09T01:08:58.883Z,28.93
2023-02-09T01:11:28.033Z,28.10
2023-02-09T01:13:56.843Z,24.37
2023-02-09T01:16:24.010Z,25.73
2023-02-09T01:18:51.031Z,29.33
2023-02-09T01:21:20.328Z,24.03
2023-02-09T01:23:47.697Z,31.43
2023-02-09T01:26:16.137Z,29.10
2023-02-09T01:28:43.295Z,30.47
2023-02-09T01:31:29.063Z,27.57
2023-02-09T01:33:57.412Z,28.37
2023-02-09T01:36:24.157Z,25.23
2023-02-09T01:38:51.752Z,28.43
2023-02-09T01:41:18.420Z,29.47
2023-02-09T01:43:56.406Z,28.57
2023-02-09T01:46:25.036Z,26.10
2023-02-09T01:48:57.205Z,25.37
2023-02-09T01:51:25.582Z,27.40
2023-02-09T01:53:52.606Z,27.33
2023-02-09T01:56:25.774Z,26.20
2023-02-09T01:58:52.657Z,29.45
2023-02-09T02:01:20.422Z,26.80
2023-02-09T02:03:47.334Z,28.87
2023-02-09T02:06:17.140Z,27.70
2023-02-09T02:08:51.165Z,29.57
2023-02-09T02:11:18.301Z,22.40
2023-02-09T02:13:45.088Z,27.60
2023-02-09T02:16:30.707Z,25.63
2023-02-09T02:19:05.270Z,28.03
2023-02-09T02:22:28.724Z,25.77
2023-02-09T02:25:16.475Z,29.03
2023-02-09T02:27:57.510Z,27.13
2023-02-09T02:30:46.248Z,26.23
2023-02-09T02:33:30.901Z,26.83
2023-02-09T02:36:28.730Z,28.47
2023-02-09T02:39:24.714Z,27.37
2023-02-09T02:42:28.276Z,26.47
2023-02-09T02:45:03.623Z,25.63
2023-02-09T02:47:34.411Z,31.47
2023-02-09T02:50:10.806Z,28.67
2023-02-09T02:52:39.700Z,29.13
2023-02-09T02:55:13.598Z,27.63
2023-02-09T03:00:21.674Z,25.70
2023-02-09T03:02:54.559Z,23.17
2023-02-09T03:05:23.698Z,26.10
2023-02-09T03:07:51.214Z,25.73
2023-02-09T03:10:34.821Z,23.93
2023-02-09T03:13:04.504Z,24.02
2023-02-09T03:15:50.712Z,24.27
2023-02-09T03:18:32.375Z,25.47
2023-02-09T03:21:21.525Z,25.10
2023-02-09T03:24:14.543Z,26.17
2023-02-09T03:27:02.627Z,26.87
2023-02-09T03:29:30.900Z,28.67
2023-02-09T03:31:58.392Z,23.63
2023-02-09T03:34:25.095Z,26.90
2023-02-09T03:36:55.227Z,27.00
2023-02-09T03:39:22.253Z,24.30
2023-02-09T03:41:49.021Z,23.70
2023-02-09T03:44:27.834Z,25.63
2023-02-09T03:47:00.334Z,22.43
2023-02-09T03:49:33.627Z,24.87
2023-02-09T03:52:01.317Z,23.50
2023-02-09T03:54:32.437Z,33.37
2023-02-09T03:57:00.302Z,30.87
2023-02-09T03:59:27.981Z,30.40
2023-02-09T04:01:56.950Z,24.37
2023-02-09T04:04:24.690Z,24.80
2023-02-09T04:06:51.839Z,25.83
2023-02-09T04:09:18.799Z,27.93
2023-02-09T04:11:47.095Z,26.23
2023-02-09T04:14:14.735Z,26.70
2023-02-09T04:16:41.387Z,26.33
2023-02-09T04:19:09.720Z,25.57
2023-02-09T04:21:37.721Z,24.53
2023-02-09T04:24:05.985Z,23.97
2023-02-09T04:26:33.001Z,22.63
2023-02-09T04:28:59.718Z,23.17
2023-02-09T04:31:27.050Z,23.60
2023-02-09T04:33:53.894Z,22.83
2023-02-09T04:36:23.321Z,22.70
2023-02-09T04:38:50.769Z,22.77
2023-02-09T04:41:17.627Z,24.57
2023-02-09T04:43:45.994Z,21.83
2023-02-09T04:46:14.257Z,23.37
2023-02-09T04:48:41.176Z,26.33
2023-02-09T04:51:07.966Z,23.23
2023-02-09T04:53:34.697Z,22.50
2023-02-09T04:56:01.774Z,23.53
2023-02-09T04:58:46.871Z,22.57
2023-02-09T05:01:22.583Z,25.57
2023-02-09T05:03:49.406Z,23.67
2023-02-09T05:06:16.570Z,26.20
2023-02-09T05:08:44.305Z,25.93
2023-02-09T05:11:11.499Z,24.27
2023-02-09T05:13:38.284Z,20.97
2023-02-09T05:16:06.761Z,22.30
2023-02-09T05:18:33.826Z,30.17
2023-02-09T05:21:00.549Z,22.50
2023-02-09T05:23:27.443Z,24.93
2023-02-09T05:25:55.974Z,21.43
2023-02-09T05:28:23.750Z,21.20
2023-02-09T05:30:53.935Z,18.07
2023-02-09T05:33:25.262Z,20.30
2023-02-09T05:35:55.778Z,24.27
2023-02-09T05:38:22.889Z,23.13
2023-02-09T05:40:49.906Z,22.90
2023-02-09T05:43:16.887Z,19.10
2023-02-09T05:45:44.796Z,23.50
2023-02-09T05:48:11.477Z,28.00
2023-02-09T05:50:38.166Z,21.80
2023-02-09T05:53:05.000Z,23.30
2023-02-09T05:55:31.705Z,20.60
2023-02-09T05:57:58.532Z,23.40
2023-02-09T06:00:27.092Z,22.23
2023-02-09T06:02:53.918Z,22.77
2023-02-09T06:05:21.937Z,22.50
2023-02-09T06:07:49.207Z,21.40
2023-02-09T06:10:19.493Z,27.70
2023-02-09T06:12:46.266Z,23.37
2023-02-09T06:15:16.388Z,23.90
2023-02-09T06:17:43.471Z,23.87
2023-02-09T06:20:10.738Z,25.47
2023-02-09T06:22:37.398Z,24.13
2023-02-09T06:25:04.389Z,26.17
2023-02-09T06:27:31.010Z,23.43
2023-02-09T06:29:57.675Z,22.93
2023-02-09T06:32:24.451Z,25.23
2023-02-09T06:34:51.181Z,21.50
2023-02-09T06:37:17.833Z,21.10
2023-02-09T06:39:44.541Z,25.00
2023-02-09T06:42:11.207Z,24.60
2023-02-09T06:44:37.846Z,23.80
2023-02-09T06:47:04.733Z,22.10
2023-02-09T06:49:31.465Z,23.90
2023-02-09T06:51:58.357Z,20.67
2023-02-09T06:54:25.810Z,23.33
2023-02-09T06:56:52.561Z,22.33
2023-02-09T06:59:19.462Z,22.13
2023-02-09T07:01:46.422Z,19.27
2023-02-09T07:04:13.119Z,22.23
2023-02-09T07:06:39.902Z,23.70
2023-02-09T07:09:06.560Z,19.93
2023-02-09T07:11:33.210Z,19.63
2023-02-09T07:14:00.180Z,23.73
2023-02-09T07:16:27.032Z,23.40
2023-02-09T07:18:53.800Z,27.37
2023-02-09T07:21:21.440Z,28.57
2023-02-09T07:23:49.525Z,29.00
2023-02-09T07:26:18.223Z,30.03
2023-02-09T07:28:45.488Z,29.83
2023-02-09T07:31:15.135Z,30.40
2023-02-09T07:33:42.455Z,33.93
2023-02-09T07:36:11.755Z,28.87
2023-02-09T07:38:39.543Z,32.63
2023-02-09T07:41:08.384Z,31.70
2023-02-09T07:43:35.241Z,29.83
2023-02-09T07:46:07.119Z,31.97
2023-02-09T07:48:34.626Z,33.13
2023-02-09T07:51:01.321Z,31.13
2023-02-09T07:53:28.949Z,29.77
2023-02-09T07:55:56.136Z,32.87
2023-02-09T07:58:23.243Z,26.77
2023-02-09T08:00:50.949Z,29.40
2023-02-09T08:03:20.656Z,31.03
2023-02-09T08:06:19.692Z,27.93
2023-02-09T08:08:48.358Z,25.87
2023-02-09T08:11:17.693Z,25.93
2023-02-09T08:13:44.759Z,24.30
2023-02-09T08:16:15.776Z,21.17
2023-02-09T08:18:54.135Z,22.03
2023-02-09T08:21:22.048Z,21.50
2023-02-09T08:23:53.382Z,19.70
2023-02-09T08:26:20.162Z,21.63
2023-02-09T08:28:47.168Z,21.40
2023-02-09T08:31:19.445Z,19.07
2023-02-09T08:33:47.584Z,15.90
2023-02-09T08:36:15.579Z,20.93
2023-02-09T08:38:42.320Z,31.87
2023-02-09T08:41:12.867Z,25.63
2023-02-09T08:43:40.274Z,20.70
2023-02-09T08:46:10.048Z,20.30
2023-02-09T08:48:40.208Z,22.27
2023-02-09T08:51:08.483Z,20.33
2023-02-09T08:53:35.871Z,19.07
2023-02-09T08:56:02.826Z,18.50
2023-02-09T08:58:30.221Z,19.30
2023-02-09T09:00:57.783Z,23.53
2023-02-09T09:03:29.932Z,19.80
2023-02-09T09:06:01.773Z,20.70
2023-02-09T09:08:28.718Z,20.50
2023-02-09T09:10:55.501Z,17.90
2023-02-09T09:13:24.198Z,19.33
2023-02-09T09:15:51.631Z,18.93
2023-02-09T09:18:19.299Z,16.70
2023-02-09T09:20:46.191Z,17.67
2023-02-09T09:23:13.153Z,18.37
2023-02-09T09:25:41.029Z,18.30
2023-02-09T09:28:08.693Z,18.63
2023-02-09T09:30:36.324Z,19.90
2023-02-09T09:33:04.084Z,16.80
2023-02-09T09:35:31.246Z,19.97
2023-02-09T09:37:58.546Z,18.70
2023-02-09T09:40:29.680Z,21.37
2023-02-09T09:43:00.583Z,18.30
2023-02-09T09:45:30.062Z,20.40
2023-02-09T09:47:57.264Z,16.70
2023-02-09T09:50:29.581Z,18.42
2023-02-09T09:53:01.738Z,23.52
2023-02-09T09:55:32.427Z,18.13
2023-02-09T09:58:02.466Z,17.98
2023-02-09T10:00:38.796Z,19.08
2023-02-09T10:03:18.298Z,19.00
2023-02-09T10:05:48.202Z,16.77
2023-02-09T10:08:29.170Z,22.08
2023-02-09T10:11:09.034Z,20.08
2023-02-09T10:13:40.672Z,19.48
2023-02-09T10:16:34.383Z,21.17
2023-02-09T10:19:05.170Z,15.93
2023-02-09T10:21:35.888Z,21.20
2023-02-09T10:24:09.246Z,20.73
2023-02-09T10:26:40.076Z,17.20
2023-02-09T10:29:13.209Z,18.27
2023-02-09T10:31:47.404Z,14.48
2023-02-09T10:34:20.250Z,19.17
2023-02-09T10:37:16.107Z,16.48
2023-02-09T10:39:43.279Z,16.20
2023-02-09T10:42:28.367Z,15.25
2023-02-09T10:44:57.312Z,14.70
2023-02-09T10:47:28.370Z,18.20
2023-02-09T10:50:17.514Z,23.10
2023-02-09T10:53:02.366Z,14.05
2023-02-09T10:55:41.817Z,14.40
2023-02-09T10:58:22.044Z,16.35
2023-02-09T11:00:53.513Z,15.88
2023-02-09T11:03:25.338Z,15.82
2023-02-09T11:06:02.801Z,16.90
2023-02-09T11:08:40.388Z,20.88
2023-02-09T11:11:38.524Z,18.08
2023-02-09T11:14:12.970Z,16.02
2023-02-09T11:16:48.542Z,27.88
2023-02-09T11:19:40.936Z,13.95
2023-02-09T11:22:38.115Z,14.52
2023-02-09T11:25:33.018Z,14.82
2023-02-09T11:28:02.613Z,22.88
2023-02-09T11:30:35.144Z,14.57
2023-02-09T11:33:07.681Z,22.52
2023-02-09T11:35:47.939Z,15.18
2023-02-09T11:38:20.177Z,20.85
2023-02-09T11:40:53.855Z,18.30
2023-02-09T11:43:35.214Z,32.05
2023-02-09T11:46:15.814Z,16.77
2023-02-09T11:49:00.558Z,12.52
2023-02-09T11:51:27.630Z,16.42
2023-02-09T11:54:17.072Z,18.25
2023-02-09T11:56:49.925Z,18.50
2023-02-09T11:59:24.023Z,14.70
2023-02-09T12:02:23.670Z,13.10
2023-02-09T12:04:58.593Z,21.02
2023-02-09T12:07:45.575Z,17.00
2023-02-09T12:10:40.799Z,13.52
2023-02-09T12:13:27.767Z,14.13
2023-02-09T12:16:02.306Z,20.90
2023-02-09T12:18:35.095Z,31.98
2023-02-09T12:21:05.272Z,16.17
2023-02-09T12:23:37.458Z,16.20
2023-02-09T12:26:13.210Z,13.88
2023-02-09T12:29:04.451Z,14.13
2023-02-09T12:31:52.312Z,11.20
2023-02-09T12:34:38.039Z,10.35
2023-02-09T12:37:14.161Z,39.45
2023-02-09T12:40:10.561Z,13.88
2023-02-09T12:42:57.271Z,16.13
2023-02-09T12:45:34.799Z,26.13
2023-02-09T12:48:13.386Z,16.48
2023-02-09T12:50:43.186Z,11.13
2023-02-09T12:53:22.091Z,11.48
2023-02-09T12:56:04.098Z,11.05
2023-02-09T12:58:39.388Z,10.60
2023-02-09T13:01:06.812Z,11.55
2023-02-09T13:03:42.411Z,11.40
2023-02-09T13:06:36.422Z,10.10
2023-02-09T13:09:08.580Z,9.93
2023-02-09T13:11:51.501Z,11.07
2023-02-09T13:14:22.249Z,12.75
2023-02-09T13:17:08.842Z,13.55
2023-02-09T13:20:04.263Z,9.23
2023-02-09T13:22:39.971Z,12.82
2023-02-09T13:25:29.898Z,28.38
2023-02-09T13:28:06.070Z,11.98
2023-02-09T13:30:32.919Z,12.63
2023-02-09T13:33:22.603Z,12.40
2023-02-09T13:36:00.816Z,31.65
2023-02-09T13:38:31.232Z,12.60
2023-02-09T13:40:58.351Z,12.48
2023-02-09T13:43:34.756Z,17.67
2023-02-09T13:46:02.638Z,13.40
2023-02-09T13:48:33.352Z,14.43
2023-02-09T13:51:02.769Z,13.52
2023-02-09T13:53:31.632Z,13.20
2023-02-09T13:56:00.429Z,18.17
2023-02-09T13:58:27.290Z,16.75
2023-02-09T14:00:57.150Z,11.45
2023-02-09T14:03:30.976Z,12.98
2023-02-09T14:06:14.825Z,11.25
2023-02-09T14:08:42.496Z,11.38
2023-02-09T14:11:42.723Z,18.67
2023-02-09T14:14:19.709Z,15.95
2023-02-09T14:16:53.397Z,11.35
2023-02-09T14:19:31.346Z,24.42
2023-02-09T14:21:58.168Z,16.10
2023-02-09T14:24:27.031Z,14.43
2023-02-09T14:27:00.622Z,16.30
2023-02-09T14:29:35.330Z,26.85
2023-02-09T14:32:31.126Z,15.98
2023-02-09T14:35:00.638Z,13.90
2023-02-09T14:37:29.534Z,13.90
2023-02-09T14:40:04.683Z,16.90
2023-02-09T14:42:33.244Z,14.77
2023-02-09T14:45:27.934Z,17.45
2023-02-09T14:47:54.617Z,17.63
2023-02-09T14:50:23.916Z,12.60
2023-02-09T14:53:02.854Z,13.02
2023-02-09T14:55:31.030Z,16.30
2023-02-09T14:57:57.744Z,18.13
2023-02-09T15:00:28.347Z,20.65
2023-02-09T15:02:56.072Z,13.25
2023-02-09T15:05:26.043Z,19.15
2023-02-09T15:08:04.246Z,13.75
2023-02-09T15:10:35.850Z,12.52
2023-02-09T15:13:04.050Z,12.35
2023-02-09T15:15:31.711Z,12.98
2023-02-09T15:18:00.067Z,12.32
2023-02-09T15:20:26.874Z,13.70
2023-02-09T15:22:54.802Z,12.55
2023-02-09T15:25:22.451Z,29.50
2023-02-09T15:27:52.439Z,25.50
2023-02-09T15:30:24.856Z,15.15
2023-02-09T15:32:51.819Z,14.60
2023-02-09T15:35:21.214Z,19.67
2023-02-09T15:37:59.754Z,14.27
2023-02-09T15:40:55.150Z,24.95
2023-02-09T15:43:42.557Z,17.35
2023-02-09T15:46:28.410Z,14.35
2023-02-09T15:48:55.244Z,17.40
2023-02-09T15:51:25.098Z,15.75
2023-02-09T15:53:54.840Z,14.38
2023-02-09T15:56:21.716Z,19.92
2023-02-09T15:58:51.241Z,21.25
2023-02-09T16:01:19.005Z,13.00
2023-02-09T16:03:46.113Z,18.17
2023-02-09T16:06:26.397Z,23.10
2023-02-09T16:08:54.528Z,19.48
2023-02-09T16:11:27.222Z,16.60
2023-02-09T16:13:54.193Z,28.30
2023-02-09T16:16:21.121Z,22.02
2023-02-09T16:18:47.986Z,23.42
2023-02-09T16:21:26.017Z,25.42
2023-02-09T16:23:54.643Z,44.35
2023-02-09T16:26:23.108Z,22.55
2023-02-09T16:28:51.647Z,15.32
2023-02-09T16:31:19.241Z,15.93
2023-02-09T16:33:46.850Z,15.35
2023-02-09T16:36:18.231Z,12.88
2023-02-09T16:38:45.592Z,15.25
2023-02-09T16:41:34.599Z,17.88
2023-02-09T16:44:02.188Z,22.42
2023-02-09T16:46:30.562Z,15.00
2023-02-09T16:49:00.636Z,17.13
2023-02-09T16:51:27.602Z,14.43
2023-02-09T16:53:54.882Z,15.15
2023-02-09T16:56:21.562Z,15.20
2023-02-09T16:58:48.671Z,27.40
2023-02-09T17:01:21.368Z,15.40
2023-02-09T17:03:54.386Z,16.38
2023-02-09T17:06:24.085Z,18.45
2023-02-09T17:08:51.418Z,14.48
2023-02-09T17:11:23.062Z,15.07
2023-02-09T17:13:50.200Z,16.90
2023-02-09T17:16:30.449Z,16.88
2023-02-09T17:19:01.812Z,15.90
2023-02-09T17:21:31.444Z,27.90
2023-02-09T17:23:58.173Z,20.80
2023-02-09T17:26:24.954Z,18.45
2023-02-09T17:28:52.006Z,15.60
2023-02-09T17:31:38.165Z,27.15
2023-02-09T17:34:08.016Z,20.67
2023-02-09T17:36:35.532Z,18.58
2023-02-09T17:39:02.431Z,16.73
2023-02-09T17:41:40.835Z,19.95
2023-02-09T17:44:26.424Z,30.55
2023-02-09T17:46:58.544Z,20.00
2023-02-09T17:49:25.440Z,24.05
2023-02-09T17:51:52.862Z,19.52
2023-02-09T17:54:20.716Z,16.10
2023-02-09T17:56:47.742Z,21.70
2023-02-09T17:59:14.814Z,20.38
2023-02-09T18:01:49.545Z,17.17
2023-02-09T18:04:22.749Z,20.33
2023-02-09T18:06:49.603Z,18.80
2023-02-09T18:09:16.307Z,24.90
2023-02-09T18:11:52.224Z,23.10
2023-02-09T18:14:21.179Z,24.70
2023-02-09T18:16:48.293Z,22.00
2023-02-09T18:19:18.374Z,17.63
2023-02-09T18:21:54.108Z,17.90
2023-02-09T18:24:23.161Z,19.08
2023-02-09T18:26:50.996Z,22.70
2023-02-09T18:29:20.229Z,18.42
2023-02-09T18:31:47.005Z,19.75
2023-02-09T18:34:15.168Z,23.70
2023-02-09T18:36:42.193Z,33.15
2023-02-09T18:39:08.962Z,19.95
2023-02-09T18:41:35.724Z,21.75
2023-02-09T18:44:02.446Z,29.95
2023-02-09T18:46:29.252Z,25.35
2023-02-09T18:48:55.910Z,19.88
2023-02-09T18:51:23.133Z,19.30
2023-02-09T18:53:51.228Z,20.45
2023-02-09T18:56:22.236Z,17.83
2023-02-09T18:58:52.645Z,19.02
2023-02-09T19:01:21.482Z,20.08
2023-02-09T19:03:53.510Z,18.92
2023-02-09T19:06:21.909Z,22.88
2023-02-09T19:08:50.214Z,20.77
2023-02-09T19:11:18.767Z,33.97
2023-02-09T19:14:05.711Z,18.75
2023-02-09T19:16:32.474Z,22.00
2023-02-09T19:18:59.370Z,18.88
2023-02-09T19:21:26.369Z,21.10
2023-02-09T19:23:54.046Z,20.98
2023-02-09T19:26:21.198Z,25.00
2023-02-09T19:28:48.465Z,26.55
2023-02-09T19:31:17.072Z,17.92
2023-02-09T19:33:44.376Z,20.92
2023-02-09T19:36:11.033Z,24.40
2023-02-09T19:38:37.822Z,20.83
2023-02-09T19:41:12.133Z,20.00
2023-02-09T19:43:40.022Z,16.58
2023-02-09T19:46:08.071Z,27.27
2023-02-09T19:48:34.812Z,21.50
2023-02-09T19:51:01.679Z,19.80
2023-02-09T19:53:28.353Z,20.75
2023-02-09T19:55:55.411Z,18.33
2023-02-09T19:58:22.445Z,18.55
2023-02-09T20:00:51.521Z,23.48
2023-02-09T20:03:18.784Z,15.60
2023-02-09T20:05:46.476Z,17.05
2023-02-09T20:08:16.271Z,20.38
2023-02-09T20:10:44.304Z,16.52
2023-02-09T20:13:12.933Z,18.05
2023-02-09T20:15:42.074Z,16.35
2023-02-09T20:18:09.063Z,18.77
2023-02-09T20:20:35.930Z,18.83
2023-02-09T20:23:02.640Z,17.02
2023-02-09T20:25:29.321Z,18.53
2023-02-09T20:27:56.144Z,20.30
2023-02-09T20:30:22.854Z,19.23
2023-02-09T20:32:49.606Z,21.15
2023-02-09T20:35:16.303Z,16.55
2023-02-09T20:37:43.257Z,19.52
2023-02-09T20:40:11.353Z,21.50
2023-02-09T20:42:57.540Z,18.92
2023-02-09T20:45:43.112Z,18.35
2023-02-09T20:48:09.941Z,18.00
2023-02-09T20:50:36.606Z,19.75
2023-02-09T20:53:03.371Z,17.42
2023-02-09T20:55:30.272Z,20.20
2023-02-09T20:57:57.419Z,21.33
2023-02-09T21:00:24.134Z,16.67
2023-02-09T21:02:50.788Z,16.47
2023-02-09T21:05:17.732Z,18.27
2023-02-09T21:07:44.630Z,21.52
2023-02-09T21:10:12.951Z,18.48
2023-02-09T21:12:39.803Z,22.67
2023-02-09T21:15:06.997Z,19.45
2023-02-09T21:17:33.732Z,19.52
2023-02-09T21:20:00.430Z,20.38
2023-02-09T21:22:27.209Z,19.23
2023-02-09T21:24:53.882Z,20.60
2023-02-09T21:27:20.752Z,21.02
2023-02-09T21:29:47.499Z,18.35
2023-02-09T21:32:14.176Z,19.37
2023-02-09T21:34:42.343Z,19.23
2023-02-09T21:37:12.844Z,19.57
2023-02-09T21:39:40.267Z,18.65
2023-02-09T21:42:25.501Z,19.33
2023-02-09T21:44:54.031Z,20.33
2023-02-09T21:47:24.869Z,18.52
2023-02-09T21:49:51.590Z,18.55
2023-02-09T21:52:18.238Z,18.38
2023-02-09T21:54:45.114Z,19.87
2023-02-09T21:57:11.880Z,23.33
2023-02-09T21:59:38.656Z,25.27
2023-02-09T22:02:05.391Z,21.63
2023-02-09T22:04:32.199Z,19.17
2023-02-09T22:06:59.057Z,20.38
2023-02-09T22:09:25.848Z,19.45
2023-02-09T22:11:52.569Z,19.02
2023-02-09T22:14:19.277Z,20.93
2023-02-09T22:16:46.729Z,18.85
2023-02-09T22:19:13.586Z,25.13
2023-02-09T22:21:40.433Z,25.42
2023-02-09T22:24:07.459Z,18.73
2023-02-09T22:26:34.212Z,21.60
2023-02-09T22:29:00.947Z,19.98
2023-02-09T22:31:27.624Z,18.60
2023-02-09T22:33:54.781Z,19.80
2023-02-09T22:36:23.404Z,20.40
2023-02-09T22:38:50.587Z,21.27
2023-02-09T22:41:22.942Z,23.02
2023-02-09T22:43:59.898Z,20.10
2023-02-09T22:46:30.754Z,19.63
2023-02-09T22:49:00.880Z,21.83
2023-02-09T22:51:29.765Z,20.07
2023-02-09T22:53:57.600Z,21.58
2023-02-09T22:56:25.343Z,27.13
2023-02-09T22:58:56.400Z,20.77
2023-02-09T23:01:23.766Z,20.15
2023-02-09T23:03:50.564Z,24.15
2023-02-09T23:06:20.058Z,22.20
2023-02-09T23:08:47.276Z,20.30
2023-02-09T23:11:17.041Z,19.60
2023-02-09T23:13:44.764Z,24.02
2023-02-09T23:16:14.682Z,20.88
2023-02-09T23:18:47.639Z,19.98
2023-02-09T23:21:15.583Z,21.73
2023-02-09T23:23:42.606Z,22.10
2023-02-09T23:26:09.393Z,22.35
2023-02-09T23:28:36.138Z,21.23
2023-02-09T23:31:07.695Z,20.40
2023-02-09T23:33:36.018Z,19.60
2023-02-09T23:36:11.229Z,16.48
2023-02-09T23:38:38.210Z,19.05
2023-02-09T23:41:13.299Z,22.50
2023-02-09T23:43:40.002Z,19.33
2023-02-09T23:46:10.793Z,19.80
2023-02-09T23:48:37.750Z,22.55
2023-02-09T23:51:11.312Z,18.98
2023-02-09T23:53:38.359Z,19.63
2023-02-09T23:56:05.600Z,20.70
2023-02-09T23:58:38.292Z,19.98
